createdAt,value
2018-10-04T04:00:54.664Z,8.70
2018-10-04T04:01:27.297Z,8.70
2018-10-04T04:01:59.892Z,8.70
2018-10-04T04:02:32.539Z,8.70
2018-10-04T04:03:05.188Z,8.70
2018-10-04T04:03:37.803Z,8.70
2018-10-04T04:04:10.451Z,8.70
2018-10-04T04:04:43.010Z,8.70
2018-10-04T04:05:15.617Z,8.80
2018-10-04T04:05:48.278Z,8.80
2018-10-04T04:06:20.938Z,8.80
2018-10-04T04:06:53.563Z,8.80
2018-10-04T04:07:26.219Z,8.80
2018-10-04T04:07:58.817Z,8.80
2018-10-04T04:08:31.536Z,8.80
2018-10-04T04:09:07.388Z,8.80
2018-10-04T04:09:40.240Z,8.80
2018-10-04T04:10:12.961Z,8.80
2018-10-04T04:10:45.586Z,8.80
2018-10-04T04:11:18.388Z,8.90
2018-10-04T04:11:51.347Z,8.90
2018-10-04T04:12:24.092Z,8.80
2018-10-04T04:12:56.735Z,8.80
2018-10-04T04:13:29.434Z,8.80
2018-10-04T04:14:02.104Z,8.80
2018-10-04T04:14:34.741Z,8.80
2018-10-04T04:15:08.087Z,8.80
2018-10-04T04:15:40.780Z,8.80
2018-10-04T04:16:13.632Z,8.80
2018-10-04T04:16:46.264Z,8.80
2018-10-04T04:17:18.972Z,8.80
2018-10-04T04:17:51.636Z,8.80
2018-10-04T04:18:24.269Z,8.80
2018-10-04T04:18:56.909Z,8.80
2018-10-04T04:19:29.536Z,8.80
2018-10-04T04:20:02.204Z,8.90
2018-10-04T04:20:35.373Z,8.90
2018-10-04T04:21:08.015Z,8.90
2018-10-04T04:21:40.692Z,8.90
2018-10-04T04:22:13.483Z,8.90
2018-10-04T04:22:46.279Z,8.90
2018-10-04T04:23:19.058Z,8.90
2018-10-04T04:23:52.623Z,8.90
2018-10-04T04:24:25.322Z,8.90
2018-10-04T04:24:58.040Z,8.90
2018-10-04T04:25:30.684Z,8.90
2018-10-04T04:26:03.432Z,8.90
2018-10-04T04:26:36.041Z,8.90
2018-10-04T04:27:08.741Z,8.90
2018-10-04T04:27:41.482Z,8.90
2018-10-04T04:28:14.206Z,8.90
2018-10-04T04:28:47.877Z,8.90
2018-10-04T04:29:20.618Z,8.90
2018-10-04T04:29:53.346Z,8.90
2018-10-04T04:30:26.048Z,8.90
2018-10-04T04:30:58.753Z,8.90
2018-10-04T04:31:31.520Z,8.90
2018-10-04T04:32:04.420Z,8.90
2018-10-04T04:32:37.028Z,8.90
2018-10-04T04:33:09.713Z,8.90
2018-10-04T04:33:42.408Z,8.90
2018-10-04T04:34:15.205Z,8.90
2018-10-04T04:34:47.857Z,8.90
2018-10-04T04:35:20.578Z,8.90
2018-10-04T04:35:53.337Z,8.90
2018-10-04T04:36:26.198Z,8.90
2018-10-04T04:36:59.020Z,8.90
2018-10-04T04:37:31.659Z,8.90
2018-10-04T04:38:04.423Z,9.00
2018-10-04T04:38:37.430Z,8.90
2018-10-04T04:39:10.096Z,8.90
2018-10-04T04:39:42.721Z,8.90
2018-10-04T04:40:15.379Z,8.90
2018-10-04T04:40:48.121Z,8.90
2018-10-04T04:41:21.005Z,8.90
2018-10-04T04:41:53.708Z,8.90
2018-10-04T04:42:26.387Z,8.90
2018-10-04T04:42:59.070Z,8.90
2018-10-04T04:43:31.745Z,8.90
2018-10-04T04:44:04.396Z,8.80
2018-10-04T04:44:37.150Z,8.80
2018-10-04T04:45:12.624Z,8.80
2018-10-04T04:45:45.529Z,8.80
2018-10-04T04:46:18.345Z,8.80
2018-10-04T04:46:51.257Z,8.80
2018-10-04T04:47:23.821Z,8.80
2018-10-04T04:47:56.453Z,8.80
2018-10-04T04:48:29.121Z,8.80
2018-10-04T04:49:01.859Z,8.80
2018-10-04T04:49:34.554Z,8.80
2018-10-04T04:50:07.462Z,8.80
2018-10-04T04:50:40.185Z,8.80
2018-10-04T04:51:13.009Z,8.80
2018-10-04T04:51:45.995Z,8.80
2018-10-04T04:52:18.661Z,8.80
2018-10-04T04:52:51.397Z,8.80
2018-10-04T04:53:32.441Z,8.80
2018-10-04T04:54:05.248Z,8.80
2018-10-04T04:55:42.622Z,8.80
2018-10-04T04:56:15.409Z,8.80
2018-10-04T04:56:48.110Z,8.80
2018-10-04T04:57:20.853Z,8.80
2018-10-04T04:57:54.525Z,8.80
2018-10-04T04:58:27.397Z,8.80
2018-10-04T04:59:00.216Z,8.80
2018-10-04T04:59:33.026Z,8.80
2018-10-04T05:00:05.702Z,8.80
2018-10-04T05:00:39.660Z,8.80
2018-10-04T05:01:12.449Z,8.80
2018-10-04T05:01:45.196Z,8.80
2018-10-04T05:02:17.906Z,8.80
2018-10-04T05:02:50.971Z,8.80
2018-10-04T05:03:24.026Z,8.80
2018-10-04T05:03:56.688Z,8.70
2018-10-04T05:04:29.323Z,8.80
2018-10-04T05:05:02.072Z,8.80
2018-10-04T05:05:34.853Z,8.80
2018-10-04T05:06:07.621Z,8.80
2018-10-04T05:06:40.287Z,8.80
2018-10-04T05:07:12.954Z,8.80
2018-10-04T05:07:45.727Z,8.80
2018-10-04T05:08:18.324Z,8.80
2018-10-04T05:08:51.017Z,8.80
2018-10-04T05:09:25.340Z,8.80
2018-10-04T05:09:58.045Z,8.80
2018-10-04T05:10:31.479Z,8.80
2018-10-04T05:11:04.236Z,8.80
2018-10-04T05:11:36.888Z,8.80
2018-10-04T05:12:09.675Z,8.80
2018-10-04T05:12:42.325Z,8.80
2018-10-04T05:13:15.027Z,8.80
2018-10-04T05:13:47.734Z,8.80
2018-10-04T05:14:20.354Z,8.80
2018-10-04T05:14:53.137Z,8.80
2018-10-04T05:15:25.907Z,8.70
2018-10-04T05:15:58.678Z,8.70
2018-10-04T05:16:31.265Z,8.70
2018-10-04T05:17:03.892Z,8.70
2018-10-04T05:17:36.620Z,8.70
2018-10-04T05:18:09.381Z,8.70
2018-10-04T05:18:42.044Z,8.70
2018-10-04T05:19:14.709Z,8.70
2018-10-04T05:19:47.399Z,8.70
2018-10-04T05:20:20.138Z,8.70
2018-10-04T05:20:52.814Z,8.70
2018-10-04T05:21:25.508Z,8.80
2018-10-04T05:21:58.160Z,8.70
2018-10-04T05:22:31.790Z,8.70
2018-10-04T05:23:04.510Z,8.70
2018-10-04T05:23:37.182Z,8.70
2018-10-04T05:24:09.845Z,8.70
2018-10-04T05:24:42.541Z,8.70
2018-10-04T05:25:15.208Z,8.70
2018-10-04T05:25:47.840Z,8.70
2018-10-04T05:26:20.575Z,8.80
2018-10-04T05:26:53.313Z,8.70
2018-10-04T05:27:25.991Z,8.80
2018-10-04T05:27:58.718Z,8.80
2018-10-04T05:28:31.464Z,8.80
2018-10-04T05:29:04.205Z,8.80
2018-10-04T05:29:36.861Z,8.80
2018-10-04T05:30:09.541Z,8.80
2018-10-04T05:30:42.257Z,8.80
2018-10-04T05:31:14.944Z,8.80
2018-10-04T05:31:47.657Z,8.80
2018-10-04T05:32:21.381Z,8.80
2018-10-04T05:32:54.089Z,8.80
2018-10-04T05:33:26.836Z,8.80
2018-10-04T05:33:59.500Z,8.80
2018-10-04T05:34:32.225Z,8.80
2018-10-04T05:35:04.926Z,8.80
2018-10-04T05:35:37.626Z,8.80
2018-10-04T05:36:10.251Z,8.80
2018-10-04T05:36:42.942Z,8.80
2018-10-04T05:37:15.637Z,8.80
2018-10-04T05:37:48.298Z,8.80
2018-10-04T05:38:21.012Z,8.80
2018-10-04T05:38:53.673Z,8.80
2018-10-04T05:39:26.343Z,8.80
2018-10-04T05:39:59.233Z,8.80
2018-10-04T05:40:31.894Z,8.80
2018-10-04T05:41:04.524Z,8.80
2018-10-04T05:41:37.178Z,8.80
2018-10-04T05:42:09.966Z,8.80
2018-10-04T05:42:42.681Z,8.80
2018-10-04T05:43:15.365Z,8.90
2018-10-04T05:43:48.078Z,8.90
2018-10-04T05:44:20.896Z,8.90
2018-10-04T05:44:53.570Z,8.90
2018-10-04T05:45:26.389Z,8.90
2018-10-04T05:45:59.039Z,9.00
2018-10-04T05:46:31.847Z,9.00
2018-10-04T05:47:04.586Z,8.90
2018-10-04T05:47:37.268Z,9.00
2018-10-04T05:48:09.991Z,9.00
2018-10-04T05:48:42.900Z,9.00
2018-10-04T05:49:15.683Z,9.00
2018-10-04T05:49:48.528Z,8.90
2018-10-04T05:50:21.416Z,8.90
2018-10-04T05:50:54.127Z,8.90
2018-10-04T05:51:26.972Z,8.90
2018-10-04T05:51:59.660Z,8.90
2018-10-04T05:52:32.300Z,8.90
2018-10-04T05:53:05.083Z,8.90
2018-10-04T05:53:37.664Z,8.90
2018-10-04T05:54:10.300Z,8.90
2018-10-04T05:54:43.014Z,8.90
2018-10-04T05:55:15.965Z,8.90
2018-10-04T05:55:48.651Z,8.90
2018-10-04T05:56:21.286Z,8.90
2018-10-04T05:56:53.949Z,8.90
2018-10-04T05:57:26.580Z,8.90
2018-10-04T05:57:59.255Z,8.90
2018-10-04T05:58:31.988Z,8.90
2018-10-04T05:59:04.652Z,8.90
2018-10-04T05:59:37.732Z,8.90
2018-10-04T06:00:29.990Z,8.90
2018-10-04T06:01:02.741Z,8.90
2018-10-04T06:01:35.489Z,8.90
2018-10-04T06:02:08.144Z,8.90
2018-10-04T06:02:40.759Z,9.00
2018-10-04T06:03:13.379Z,9.00
2018-10-04T06:03:46.014Z,9.00
2018-10-04T06:04:18.641Z,9.00
2018-10-04T06:04:51.290Z,8.90
2018-10-04T06:05:23.937Z,8.90
2018-10-04T06:05:56.537Z,8.90
2018-10-04T06:06:29.197Z,9.00
2018-10-04T06:07:01.859Z,8.90
2018-10-04T06:07:34.847Z,8.90
2018-10-04T06:08:07.517Z,8.90
2018-10-04T06:08:40.120Z,8.90
2018-10-04T06:09:12.730Z,8.90
2018-10-04T06:09:45.366Z,8.90
2018-10-04T06:10:17.964Z,8.90
2018-10-04T06:10:51.494Z,8.90
2018-10-04T06:11:24.112Z,8.90
2018-10-04T06:11:56.818Z,8.90
2018-10-04T06:12:29.775Z,8.90
2018-10-04T06:13:02.459Z,8.90
2018-10-04T06:13:35.132Z,8.90
2018-10-04T06:14:07.834Z,8.90
2018-10-04T06:14:40.653Z,8.90
2018-10-04T06:15:13.344Z,8.90
2018-10-04T06:15:45.945Z,8.90
2018-10-04T06:16:18.575Z,8.90
2018-10-04T06:16:51.188Z,8.90
2018-10-04T06:17:23.852Z,8.90
2018-10-04T06:17:56.471Z,8.90
2018-10-04T06:18:29.115Z,8.90
2018-10-04T06:19:01.754Z,8.90
2018-10-04T06:19:34.354Z,8.90
2018-10-04T06:20:07.140Z,8.90
2018-10-04T06:20:40.341Z,9.00
2018-10-04T06:21:13.471Z,9.00
2018-10-04T06:21:46.160Z,9.00
2018-10-04T06:22:18.960Z,8.90
2018-10-04T06:22:51.617Z,8.90
2018-10-04T06:23:24.270Z,8.90
2018-10-04T06:23:56.963Z,8.90
2018-10-04T06:24:29.721Z,9.00
2018-10-04T06:25:02.352Z,9.00
2018-10-04T06:25:34.992Z,9.00
2018-10-04T06:26:07.619Z,9.00
2018-10-04T06:26:40.263Z,9.00
2018-10-04T06:27:12.917Z,9.00
2018-10-04T06:27:45.526Z,9.00
2018-10-04T06:28:18.189Z,9.00
2018-10-04T06:28:50.814Z,9.00
2018-10-04T06:29:23.499Z,9.10
2018-10-04T06:29:56.194Z,9.00
2018-10-04T06:30:28.800Z,9.10
2018-10-04T06:31:01.438Z,9.10
2018-10-04T06:31:34.096Z,9.10
2018-10-04T06:32:06.849Z,9.10
2018-10-04T06:32:39.507Z,9.10
2018-10-04T06:33:12.128Z,9.10
2018-10-04T06:33:44.822Z,9.20
2018-10-04T06:34:17.466Z,9.20
2018-10-04T06:34:50.106Z,9.20
2018-10-04T06:35:22.738Z,9.20
2018-10-04T06:35:55.336Z,9.20
2018-10-04T06:36:28.769Z,9.30
2018-10-04T06:37:01.389Z,9.30
2018-10-04T06:37:34.598Z,9.30
2018-10-04T06:38:07.310Z,9.30
2018-10-04T06:38:39.929Z,9.40
2018-10-04T06:39:12.578Z,9.40
2018-10-04T06:39:45.173Z,9.40
2018-10-04T06:40:17.943Z,9.40
2018-10-04T06:40:50.552Z,9.40
2018-10-04T06:41:23.149Z,9.50
2018-10-04T06:41:55.796Z,9.50
2018-10-04T06:42:28.419Z,9.50
2018-10-04T06:43:01.041Z,9.60
2018-10-04T06:43:33.645Z,9.60
2018-10-04T06:44:06.358Z,9.70
2018-10-04T06:44:38.964Z,9.70
2018-10-04T06:45:11.604Z,9.70
2018-10-04T06:45:44.217Z,9.70
2018-10-04T06:46:16.812Z,9.80
2018-10-04T06:46:49.432Z,9.80
2018-10-04T06:47:22.045Z,9.80
2018-10-04T06:47:54.678Z,9.80
2018-10-04T06:48:27.318Z,9.80
2018-10-04T06:48:59.958Z,9.90
2018-10-04T06:49:32.549Z,9.90
2018-10-04T06:50:05.368Z,9.90
2018-10-04T06:50:37.971Z,9.90
2018-10-04T06:51:10.592Z,9.90
2018-10-04T06:51:43.202Z,9.90
2018-10-04T06:52:15.835Z,10.00
2018-10-04T06:52:48.420Z,10.00
2018-10-04T06:53:21.141Z,10.00
2018-10-04T06:53:53.789Z,10.00
2018-10-04T06:54:26.421Z,10.00
2018-10-04T06:54:59.052Z,10.10
2018-10-04T06:55:31.739Z,10.00
2018-10-04T06:56:04.354Z,10.10
2018-10-04T06:56:37.023Z,10.10
2018-10-04T06:57:09.633Z,10.00
2018-10-04T06:57:42.318Z,10.00
2018-10-04T06:58:14.934Z,10.00
2018-10-04T06:58:47.564Z,10.00
2018-10-04T06:59:20.176Z,10.00
2018-10-04T06:59:52.761Z,10.00
2018-10-04T07:00:25.366Z,10.00
2018-10-04T07:00:58.000Z,10.00
2018-10-04T07:01:30.600Z,10.00
2018-10-04T07:02:03.353Z,10.00
2018-10-04T07:02:35.964Z,10.10
2018-10-04T07:03:08.598Z,10.00
2018-10-04T07:03:41.258Z,10.00
2018-10-04T07:04:13.850Z,10.00
2018-10-04T07:04:46.482Z,10.00
2018-10-04T07:05:19.113Z,10.00
2018-10-04T07:05:51.716Z,9.90
2018-10-04T07:06:24.390Z,10.00
2018-10-04T07:06:57.059Z,9.90
2018-10-04T07:07:29.678Z,9.90
2018-10-04T07:08:02.280Z,9.90
2018-10-04T07:08:34.896Z,10.00
2018-10-04T07:09:08.749Z,10.00
2018-10-04T07:09:41.352Z,10.00
2018-10-04T07:10:14.020Z,10.00
2018-10-04T07:10:46.576Z,10.00
2018-10-04T07:11:19.173Z,10.00
2018-10-04T07:11:51.879Z,10.00
2018-10-04T07:12:24.515Z,10.10
2018-10-04T07:12:57.178Z,10.10
2018-10-04T07:13:29.802Z,10.10
2018-10-04T07:14:02.419Z,10.10
2018-10-04T07:14:35.029Z,10.10
2018-10-04T07:15:07.669Z,10.20
2018-10-04T07:15:40.275Z,10.20
2018-10-04T07:16:12.909Z,10.20
2018-10-04T07:16:45.525Z,10.20
2018-10-04T07:17:18.165Z,10.30
2018-10-04T07:17:50.783Z,10.30
2018-10-04T07:18:23.392Z,10.30
2018-10-04T07:18:56.034Z,10.30
2018-10-04T07:19:28.625Z,10.30
2018-10-04T07:20:01.252Z,10.30
2018-10-04T07:20:34.230Z,10.30
2018-10-04T07:21:06.831Z,10.30
2018-10-04T07:21:39.396Z,10.30
2018-10-04T07:22:11.996Z,10.30
2018-10-04T07:22:44.633Z,10.30
2018-10-04T07:23:17.508Z,10.30
2018-10-04T07:23:50.097Z,10.30
2018-10-04T07:24:22.701Z,10.30
2018-10-04T07:24:55.353Z,10.30
2018-10-04T07:25:27.967Z,10.30
2018-10-04T07:26:00.587Z,10.30
2018-10-04T07:26:33.261Z,10.30
2018-10-04T07:27:05.957Z,10.20
2018-10-04T07:27:38.725Z,10.30
2018-10-04T07:28:11.352Z,10.30
2018-10-04T07:28:43.955Z,10.30
2018-10-04T07:29:16.589Z,10.30
2018-10-04T07:29:49.214Z,10.30
2018-10-04T07:30:21.808Z,10.30
2018-10-04T07:30:54.490Z,10.40
2018-10-04T07:31:27.144Z,10.40
2018-10-04T07:31:59.795Z,10.40
2018-10-04T07:32:32.480Z,10.40
2018-10-04T07:33:05.101Z,10.40
2018-10-04T07:33:37.796Z,10.40
2018-10-04T07:34:10.417Z,10.40
2018-10-04T07:34:43.100Z,10.40
2018-10-04T07:35:15.718Z,10.40
2018-10-04T07:35:48.460Z,10.40
2018-10-04T07:36:21.132Z,10.40
2018-10-04T07:36:53.768Z,10.50
2018-10-04T07:37:26.470Z,10.50
2018-10-04T07:37:59.036Z,10.40
2018-10-04T07:38:31.742Z,10.50
2018-10-04T07:39:06.745Z,10.50
2018-10-04T07:39:39.383Z,10.50
2018-10-04T07:40:12.064Z,10.50
2018-10-04T07:40:44.738Z,10.50
2018-10-04T07:41:17.362Z,10.60
2018-10-04T07:41:49.996Z,10.60
2018-10-04T07:42:22.757Z,10.60
2018-10-04T07:42:55.293Z,10.60
2018-10-04T07:43:27.915Z,10.60
2018-10-04T07:44:00.521Z,10.60
2018-10-04T07:44:33.160Z,10.70
2018-10-04T07:45:05.801Z,10.70
2018-10-04T07:45:38.468Z,10.60
2018-10-04T07:46:11.091Z,10.70
2018-10-04T07:46:43.720Z,10.70
2018-10-04T07:47:16.338Z,10.70
2018-10-04T07:47:48.978Z,10.70
2018-10-04T07:48:21.645Z,10.70
2018-10-04T07:48:54.275Z,10.70
2018-10-04T07:49:27.011Z,10.80
2018-10-04T07:49:59.741Z,10.80
2018-10-04T07:50:32.348Z,10.80
2018-10-04T07:51:05.001Z,10.80
2018-10-04T07:51:37.658Z,10.80
2018-10-04T07:52:10.304Z,10.80
2018-10-04T07:52:42.941Z,10.80
2018-10-04T07:53:15.537Z,10.80
2018-10-04T07:53:48.156Z,10.80
2018-10-04T07:54:20.786Z,10.80
2018-10-04T07:54:53.398Z,10.80
2018-10-04T07:55:26.061Z,10.80
2018-10-04T07:55:58.712Z,10.80
2018-10-04T07:56:31.336Z,10.80
2018-10-04T07:57:03.961Z,10.80
2018-10-04T07:57:36.703Z,10.80
2018-10-04T07:58:09.327Z,10.80
2018-10-04T07:58:41.948Z,10.80
2018-10-04T07:59:14.568Z,10.80
2018-10-04T07:59:47.183Z,10.80
2018-10-04T08:00:20.043Z,10.90
2018-10-04T08:00:52.671Z,10.90
2018-10-04T08:01:25.292Z,10.90
2018-10-04T08:01:57.904Z,11.00
2018-10-04T08:02:30.649Z,10.90
2018-10-04T08:03:03.298Z,11.00
2018-10-04T08:03:35.917Z,11.00
2018-10-04T08:04:08.530Z,11.00
2018-10-04T08:04:41.184Z,11.00
2018-10-04T08:05:13.797Z,11.00
2018-10-04T08:05:46.448Z,11.00
2018-10-04T08:06:19.218Z,11.10
2018-10-04T08:06:51.816Z,11.00
2018-10-04T08:07:24.376Z,11.10
2018-10-04T08:07:57.008Z,11.10
2018-10-04T08:08:29.635Z,11.10
2018-10-04T08:09:02.328Z,11.10
2018-10-04T08:09:34.948Z,11.20
2018-10-04T08:10:07.567Z,11.30
2018-10-04T08:10:40.169Z,11.20
2018-10-04T08:11:12.800Z,11.30
2018-10-04T08:11:45.456Z,11.30
2018-10-04T08:12:18.061Z,11.30
2018-10-04T08:12:50.673Z,11.30
2018-10-04T08:13:23.303Z,11.30
2018-10-04T08:13:55.916Z,11.30
2018-10-04T08:14:28.548Z,11.30
2018-10-04T08:15:01.187Z,11.40
2018-10-04T08:15:33.833Z,11.40
2018-10-04T08:16:06.612Z,11.40
2018-10-04T08:16:39.260Z,11.40
2018-10-04T08:17:11.941Z,11.40
2018-10-04T08:17:44.559Z,11.40
2018-10-04T08:18:17.168Z,11.40
2018-10-04T08:18:49.816Z,11.40
2018-10-04T08:19:22.433Z,11.40
2018-10-04T08:19:55.068Z,11.50
2018-10-04T08:20:27.711Z,11.50
2018-10-04T08:21:00.344Z,11.50
2018-10-04T08:21:32.993Z,11.50
2018-10-04T08:22:05.612Z,11.60
2018-10-04T08:22:38.280Z,11.50
2018-10-04T08:23:10.921Z,11.50
2018-10-04T08:23:43.520Z,11.60
2018-10-04T08:24:16.124Z,11.60
2018-10-04T08:24:48.761Z,11.60
2018-10-04T08:25:21.380Z,11.60
2018-10-04T08:25:54.013Z,11.60
2018-10-04T08:26:26.669Z,11.70
2018-10-04T08:26:59.341Z,11.70
2018-10-04T08:27:31.959Z,11.70
2018-10-04T08:28:04.637Z,11.70
2018-10-04T08:28:37.236Z,11.70
2018-10-04T08:29:09.926Z,11.70
2018-10-04T08:29:42.587Z,11.70
2018-10-04T08:30:15.234Z,11.70
2018-10-04T08:30:47.849Z,11.80
2018-10-04T08:31:20.479Z,11.80
2018-10-04T08:31:53.113Z,11.80
2018-10-04T08:32:25.723Z,11.80
2018-10-04T08:32:58.336Z,11.90
2018-10-04T08:33:30.968Z,11.90
2018-10-04T08:34:03.624Z,11.90
2018-10-04T08:34:36.284Z,11.90
2018-10-04T08:35:08.949Z,12.00
2018-10-04T08:35:41.616Z,12.00
2018-10-04T08:36:14.236Z,12.10
2018-10-04T08:36:46.856Z,12.10
2018-10-04T08:37:19.471Z,12.20
2018-10-04T08:37:52.108Z,12.10
2018-10-04T08:38:24.716Z,12.20
2018-10-04T08:38:57.420Z,12.20
2018-10-04T08:39:30.032Z,12.30
2018-10-04T08:40:02.768Z,12.30
2018-10-04T08:40:35.387Z,12.30
2018-10-04T08:41:07.976Z,12.30
2018-10-04T08:41:40.588Z,12.30
2018-10-04T08:42:13.265Z,12.40
2018-10-04T08:42:45.832Z,12.40
2018-10-04T08:43:18.459Z,12.40
2018-10-04T08:43:51.084Z,12.40
2018-10-04T08:44:23.764Z,12.40
2018-10-04T08:44:56.435Z,12.40
2018-10-04T08:45:29.242Z,12.40
2018-10-04T08:46:02.533Z,12.40
2018-10-04T08:46:35.201Z,12.40
2018-10-04T08:47:08.189Z,12.50
2018-10-04T08:47:40.880Z,12.50
2018-10-04T08:48:13.553Z,12.50
2018-10-04T08:48:46.200Z,12.60
2018-10-04T08:49:18.829Z,12.60
2018-10-04T08:49:51.552Z,12.60
2018-10-04T08:50:24.200Z,12.60
2018-10-04T08:50:57.100Z,12.60
2018-10-04T08:51:35.405Z,12.70
2018-10-04T08:52:13.553Z,12.70
2018-10-04T08:52:50.879Z,12.80
2018-10-04T08:53:23.512Z,12.80
2018-10-04T08:53:56.182Z,12.80
2018-10-04T08:54:30.692Z,12.80
2018-10-04T08:55:09.096Z,12.80
2018-10-04T08:55:41.729Z,12.80
2018-10-04T08:56:14.364Z,12.80
2018-10-04T08:56:46.987Z,12.80
2018-10-04T08:57:19.674Z,12.80
2018-10-04T08:57:52.715Z,12.90
2018-10-04T08:58:25.380Z,12.90
2018-10-04T08:58:58.049Z,12.80
2018-10-04T08:59:30.789Z,12.80
2018-10-04T09:00:03.432Z,12.70
2018-10-04T09:00:36.087Z,12.70
2018-10-04T09:01:08.703Z,12.70
2018-10-04T09:01:41.329Z,12.70
2018-10-04T09:02:13.928Z,12.80
2018-10-04T09:02:46.667Z,12.70
2018-10-04T09:03:19.988Z,12.70
2018-10-04T09:03:58.281Z,12.70
2018-10-04T09:04:31.101Z,12.70
2018-10-04T09:05:03.843Z,12.60
2018-10-04T09:05:36.490Z,12.60
2018-10-04T09:06:09.112Z,12.60
2018-10-04T09:06:41.740Z,12.50
2018-10-04T09:07:14.372Z,12.50
2018-10-04T09:07:47.059Z,12.50
2018-10-04T09:08:19.684Z,12.50
2018-10-04T09:08:52.405Z,12.40
2018-10-04T09:09:25.049Z,12.40
2018-10-04T09:09:59.196Z,12.50
2018-10-04T09:10:31.830Z,12.50
2018-10-04T09:11:04.613Z,12.50
2018-10-04T09:11:37.232Z,12.50
2018-10-04T09:12:09.937Z,12.50
2018-10-04T09:12:42.620Z,12.60
2018-10-04T09:13:15.252Z,12.60
2018-10-04T09:13:48.009Z,12.70
2018-10-04T09:14:20.603Z,12.70
2018-10-04T09:14:53.215Z,12.70
2018-10-04T09:15:25.832Z,12.70
2018-10-04T09:15:58.460Z,12.80
2018-10-04T09:16:31.131Z,12.80
2018-10-04T09:17:03.768Z,12.80
2018-10-04T09:17:36.365Z,12.80
2018-10-04T09:18:09.083Z,12.80
2018-10-04T09:18:41.693Z,12.80
2018-10-04T09:19:14.336Z,12.80
2018-10-04T09:19:46.968Z,12.80
2018-10-04T09:20:19.589Z,12.80
2018-10-04T09:20:52.219Z,12.80
2018-10-04T09:21:24.842Z,12.90
2018-10-04T09:21:57.513Z,12.90
2018-10-04T09:22:30.161Z,12.90
2018-10-04T09:23:02.787Z,12.90
2018-10-04T09:23:35.645Z,12.90
2018-10-04T09:24:08.260Z,12.90
2018-10-04T09:24:40.869Z,12.80
2018-10-04T09:25:13.776Z,12.80
2018-10-04T09:25:46.452Z,12.80
2018-10-04T09:26:19.105Z,12.80
2018-10-04T09:26:51.709Z,12.80
2018-10-04T09:27:24.364Z,12.80
2018-10-04T09:27:56.976Z,12.80
2018-10-04T09:28:29.629Z,12.80
2018-10-04T09:29:07.913Z,12.80
2018-10-04T09:29:46.102Z,12.80
2018-10-04T09:30:24.411Z,12.80
2018-10-04T09:31:02.664Z,12.80
2018-10-04T09:31:37.448Z,12.80
2018-10-04T09:32:10.220Z,12.80
2018-10-04T09:32:42.797Z,12.80
2018-10-04T09:33:15.421Z,12.90
2018-10-04T09:33:48.029Z,12.80
2018-10-04T09:34:21.316Z,12.80
2018-10-04T09:34:53.932Z,12.80
2018-10-04T09:35:28.630Z,12.80
2018-10-04T09:36:01.284Z,12.80
2018-10-04T09:36:33.928Z,12.80
2018-10-04T09:37:08.108Z,12.90
2018-10-04T09:37:40.823Z,12.90
2018-10-04T09:38:13.477Z,12.80
2018-10-04T09:38:46.119Z,12.80
2018-10-04T09:39:18.789Z,12.90
2018-10-04T09:39:51.413Z,12.90
2018-10-04T09:40:24.045Z,12.80
2018-10-04T09:40:56.768Z,12.80
2018-10-04T09:41:29.429Z,12.80
2018-10-04T09:42:02.067Z,12.80
2018-10-04T09:42:36.824Z,12.80
2018-10-04T09:43:09.485Z,12.80
2018-10-04T09:43:42.185Z,12.80
2018-10-04T09:44:14.848Z,12.80
2018-10-04T09:44:47.557Z,12.80
2018-10-04T09:45:20.228Z,12.80
2018-10-04T09:45:52.891Z,12.70
2018-10-04T09:46:25.589Z,12.70
2018-10-04T09:46:58.304Z,12.70
2018-10-04T09:47:30.973Z,12.70
2018-10-04T09:48:03.765Z,12.70
2018-10-04T09:48:36.414Z,12.70
2018-10-04T09:49:09.037Z,12.70
2018-10-04T09:49:41.681Z,12.70
2018-10-04T09:50:14.303Z,12.70
2018-10-04T09:50:46.962Z,12.70
2018-10-04T09:51:25.236Z,12.80
2018-10-04T09:52:00.789Z,12.70
2018-10-04T09:52:35.448Z,12.80
2018-10-04T09:53:08.503Z,12.70
2018-10-04T09:53:46.732Z,12.70
2018-10-04T09:54:24.866Z,12.70
2018-10-04T09:55:03.327Z,12.70
2018-10-04T09:55:41.617Z,12.80
2018-10-04T09:56:19.944Z,12.80
2018-10-04T09:56:52.630Z,12.80
2018-10-04T09:57:30.941Z,12.80
2018-10-04T09:58:03.599Z,12.80
2018-10-04T09:58:36.241Z,12.80
2018-10-04T09:59:08.925Z,12.80
2018-10-04T09:59:41.679Z,12.80
2018-10-04T10:00:19.880Z,12.80
2018-10-04T10:00:58.138Z,12.80
2018-10-04T10:01:36.520Z,12.70
2018-10-04T10:02:15.360Z,12.70
2018-10-04T10:02:58.605Z,12.70
2018-10-04T10:03:31.289Z,12.70
2018-10-04T10:04:04.852Z,12.70
2018-10-04T10:04:37.469Z,12.70
2018-10-04T10:05:11.401Z,12.70
2018-10-04T10:05:44.032Z,12.70
2018-10-04T10:06:16.654Z,12.70
2018-10-04T10:06:49.335Z,12.80
2018-10-04T10:07:25.768Z,12.80
2018-10-04T10:07:58.451Z,12.80
2018-10-04T10:08:31.256Z,12.80
2018-10-04T10:09:06.813Z,12.80
2018-10-04T10:09:39.512Z,12.80
2018-10-04T10:10:12.290Z,12.90
2018-10-04T10:10:44.932Z,12.90
2018-10-04T10:11:17.515Z,13.00
2018-10-04T10:11:50.193Z,13.00
2018-10-04T10:12:22.819Z,13.00
2018-10-04T10:12:55.481Z,13.10
2018-10-04T10:13:28.135Z,13.10
2018-10-04T10:14:00.773Z,13.20
2018-10-04T10:14:33.524Z,13.20
2018-10-04T10:15:06.216Z,13.20
2018-10-04T10:15:38.873Z,13.10
2018-10-04T10:16:11.516Z,13.10
2018-10-04T10:16:44.140Z,13.00
2018-10-04T10:17:16.768Z,13.00
2018-10-04T10:17:49.356Z,13.10
2018-10-04T10:18:21.996Z,13.00
2018-10-04T10:18:54.604Z,13.10
2018-10-04T10:19:27.256Z,13.10
2018-10-04T10:19:59.841Z,13.10
2018-10-04T10:20:32.463Z,13.10
2018-10-04T10:21:05.222Z,13.10
2018-10-04T10:21:37.784Z,13.10
2018-10-04T10:22:10.497Z,13.10
2018-10-04T10:22:43.116Z,13.10
2018-10-04T10:23:15.780Z,13.10
2018-10-04T10:23:48.393Z,13.10
2018-10-04T10:24:20.987Z,13.10
2018-10-04T10:24:53.609Z,13.10
2018-10-04T10:25:26.239Z,13.00
2018-10-04T10:25:58.836Z,13.10
2018-10-04T10:26:31.460Z,13.00
2018-10-04T10:27:04.048Z,13.00
2018-10-04T10:27:36.676Z,13.00
2018-10-04T10:28:09.272Z,13.00
2018-10-04T10:28:41.903Z,13.00
2018-10-04T10:29:14.520Z,13.00
2018-10-04T10:29:47.142Z,13.00
2018-10-04T10:30:19.782Z,13.00
2018-10-04T10:30:52.393Z,13.10
2018-10-04T10:31:25.048Z,13.00
2018-10-04T10:31:57.704Z,13.10
2018-10-04T10:32:30.299Z,13.10
2018-10-04T10:33:03.516Z,13.10
2018-10-04T10:33:36.131Z,13.20
2018-10-04T10:34:08.728Z,13.20
2018-10-04T10:34:41.411Z,13.10
2018-10-04T10:35:13.985Z,13.10
2018-10-04T10:35:46.575Z,13.20
2018-10-04T10:36:19.216Z,13.20
2018-10-04T10:36:51.820Z,13.20
2018-10-04T10:37:24.477Z,13.20
2018-10-04T10:37:57.045Z,13.20
2018-10-04T10:38:29.658Z,13.20
2018-10-04T10:39:02.348Z,13.20
2018-10-04T10:39:35.001Z,13.30
2018-10-04T10:40:08.570Z,13.30
2018-10-04T10:40:41.100Z,13.30
2018-10-04T10:41:13.716Z,13.30
2018-10-04T10:41:46.342Z,13.30
2018-10-04T10:42:18.948Z,13.30
2018-10-04T10:42:51.624Z,13.30
2018-10-04T10:43:24.225Z,13.30
2018-10-04T10:43:56.843Z,13.30
2018-10-04T10:44:29.466Z,13.40
2018-10-04T10:45:02.100Z,13.40
2018-10-04T10:45:34.744Z,13.40
2018-10-04T10:46:07.417Z,13.40
2018-10-04T10:46:40.024Z,13.40
2018-10-04T10:47:12.647Z,13.40
2018-10-04T10:47:45.256Z,13.40
2018-10-04T10:48:18.131Z,13.30
2018-10-04T10:48:50.744Z,13.30
2018-10-04T10:49:23.371Z,13.30
2018-10-04T10:49:55.999Z,13.30
2018-10-04T10:50:28.647Z,13.30
2018-10-04T10:51:01.276Z,13.40
2018-10-04T10:51:33.942Z,13.40
2018-10-04T10:52:06.576Z,13.40
2018-10-04T10:52:39.178Z,13.50
2018-10-04T10:53:11.843Z,13.50
2018-10-04T10:53:44.489Z,13.50
2018-10-04T10:54:17.132Z,13.40
2018-10-04T10:54:49.732Z,13.40
2018-10-04T10:55:22.345Z,13.40
2018-10-04T10:55:54.981Z,13.40
2018-10-04T10:56:27.656Z,13.40
2018-10-04T10:57:00.271Z,13.40
2018-10-04T10:57:33.399Z,13.40
2018-10-04T10:58:06.028Z,13.40
2018-10-04T10:58:38.624Z,13.40
2018-10-04T10:59:11.275Z,13.50
2018-10-04T10:59:43.905Z,13.50
2018-10-04T11:00:16.556Z,13.50
2018-10-04T11:00:49.357Z,13.60
2018-10-04T11:01:21.976Z,13.60
2018-10-04T11:01:54.845Z,13.60
2018-10-04T11:02:27.956Z,13.60
2018-10-04T11:03:00.720Z,13.60
2018-10-04T11:03:33.407Z,13.60
2018-10-04T11:04:06.313Z,13.50
2018-10-04T11:04:39.088Z,13.50
2018-10-04T11:05:11.701Z,13.50
2018-10-04T11:05:44.349Z,13.50
2018-10-04T11:06:16.956Z,13.50
2018-10-04T11:06:50.241Z,13.40
2018-10-04T11:07:22.872Z,13.40
2018-10-04T11:07:55.466Z,13.40
2018-10-04T11:08:28.156Z,13.40
2018-10-04T11:09:00.743Z,13.30
2018-10-04T11:09:33.505Z,13.30
2018-10-04T11:10:06.254Z,13.30
2018-10-04T11:10:38.836Z,13.30
2018-10-04T11:11:11.507Z,13.40